Aérodrome :
LOGIN :

S'inscrire | Disclaimer

   EN    FR    IT 

 










Légende :    VFR   VFR Marginal   IFR   IFR Intensif   IFR Très Intensif
Visi : 
Plafond : 
>= 8 km
>= 3000ft
5 à 8 km
1000 à 3000 ft
1500m à 5 km
500 à 1000 ft
800 à 1500m
200 à 500 ft
< 800m
< 200 ft
Symboles :   Orages  Brouillard  Fortes neiges  Fortes précipitations  Vent > 20 kt
SIGMETs :   Divers  Orages  Givrage  Turbulence  Onde Orograph.  Cendres Volcan.







- Altitude de l'aérodrome : 782 ft
- Code IATA : BGY


LIME - Orio al Serio International - Bergamo

DERNIER METAR :
  • 170350Z 36005KT CAVOK 03/M01 Q1028 NOSIG

METARs EXPIRÉS :
  • 170320Z 35003KT CAVOK 03/M00 Q1028 NOSIG
  • 170250Z 36005KT CAVOK 04/M00 Q1028 NOSIG
  • 170220Z 01005KT CAVOK 04/00 Q1028 NOSIG
  • 170150Z 01005KT CAVOK 04/00 Q1029 NOSIG
  • 170120Z 36006KT CAVOK 04/00 Q1029 NOSIG

TAF TAF LIME
Valide du 17 à 00h jusqu'au 18 à 00h UTC


162300Z 1700/1724 VRB05KT CAVOK
TEMPO 1714/1718 4000 BR
Pas de NOTAMs connus pour ce terrain.



MET'MAP, la Météo Aéronautique d'un coup d'oeil ! - Copyright ORBIFLY Décembre 2007 - Disclaimer

ORBIFLY MET'MAP TEAM :

Programmation & Développement : Alexandra Zaïnal
Conception & Développement : Baudouin d'Aumeries
Co-Programmation & Développement : Marc-Olivier Méhu
Soutien technique & logistique : Manuel Goepfert

Contact : metmap@orbifly.com




SOURCES & CREDITS :

   NOAA